createdAt,value
2022-09-21T00:01:28.539Z,58.30
2022-09-21T00:04:01.359Z,58.40
2022-09-21T00:06:33.160Z,58.50
2022-09-21T00:09:00.890Z,58.60
2022-09-21T00:11:29.949Z,58.60
2022-09-21T00:14:04.624Z,58.50
2022-09-21T00:16:32.154Z,58.40
2022-09-21T00:19:00.461Z,58.50
2022-09-21T00:21:28.175Z,58.60
2022-09-21T00:23:55.500Z,58.70
2022-09-21T00:26:26.339Z,58.90
2022-09-21T00:28:59.567Z,58.40
2022-09-21T00:31:28.642Z,59.10
2022-09-21T00:33:55.599Z,59.00
2022-09-21T00:36:25.733Z,59.00
2022-09-21T00:38:59.099Z,59.20
2022-09-21T00:41:27.847Z,59.60
2022-09-21T00:44:16.460Z,59.40
2022-09-21T00:46:46.630Z,60.30
2022-09-21T00:49:14.524Z,59.30
2022-09-21T00:51:42.607Z,59.50
2022-09-21T00:54:16.557Z,59.50
2022-09-21T00:56:45.234Z,59.70
2022-09-21T00:59:19.884Z,59.50
2022-09-21T01:01:48.564Z,59.60
2022-09-21T01:04:18.871Z,59.60
2022-09-21T01:06:47.810Z,59.60
2022-09-21T01:09:17.010Z,59.60
2022-09-21T01:12:36.544Z,59.60
2022-09-21T01:15:34.851Z,60.50
2022-09-21T01:18:35.218Z,60.20
2022-09-21T01:21:20.663Z,60.40
2022-09-21T01:24:10.730Z,60.50
2022-09-21T01:27:15.287Z,59.80
2022-09-21T01:30:02.468Z,60.50
2022-09-21T01:32:40.739Z,59.90
2022-09-21T01:35:28.132Z,60.00
2022-09-21T01:37:57.050Z,60.00
2022-09-21T01:40:36.644Z,60.00
2022-09-21T01:43:06.713Z,60.10
2022-09-21T01:45:40.906Z,60.00
2022-09-21T01:48:09.187Z,60.30
2022-09-21T01:50:43.703Z,60.10
2022-09-21T01:53:28.477Z,60.30
2022-09-21T01:56:07.819Z,60.90
2022-09-21T01:58:45.086Z,60.50
2022-09-21T02:01:20.244Z,60.60
2022-09-21T02:04:12.876Z,60.60
2022-09-21T02:06:43.819Z,61.40
2022-09-21T02:09:11.694Z,60.50
2022-09-21T02:11:42.437Z,60.50
2022-09-21T02:14:18.151Z,60.60
2022-09-21T02:17:07.691Z,60.80
2022-09-21T02:19:49.212Z,60.60
2022-09-21T02:22:29.730Z,60.80
2022-09-21T02:25:11.108Z,60.90
2022-09-21T02:27:50.093Z,61.50
2022-09-21T02:30:25.282Z,60.90
2022-09-21T02:33:25.744Z,61.10
2022-09-21T02:36:10.169Z,61.80
2022-09-21T02:39:00.761Z,61.30
2022-09-21T02:41:33.834Z,61.50
2022-09-21T02:44:33.614Z,61.20
2022-09-21T02:47:09.208Z,61.40
2022-09-21T02:49:44.283Z,61.10
2022-09-21T02:52:17.006Z,60.90
2022-09-21T02:54:50.588Z,61.00
2022-09-21T02:57:21.542Z,61.10
2022-09-21T02:59:49.810Z,61.20
2022-09-21T03:02:16.911Z,61.30
2022-09-21T03:04:48.002Z,61.40
2022-09-21T03:07:18.336Z,61.40
2022-09-21T03:09:45.291Z,61.70
2022-09-21T03:12:12.110Z,61.40
2022-09-21T03:14:39.058Z,61.40
2022-09-21T03:17:05.908Z,61.30
2022-09-21T03:19:32.690Z,61.40
2022-09-21T03:22:00.072Z,61.50
2022-09-21T03:24:45.463Z,61.50
2022-09-21T03:27:14.638Z,61.60
2022-09-21T03:29:41.482Z,61.70
2022-09-21T03:32:08.466Z,61.70
2022-09-21T03:34:35.916Z,61.80
2022-09-21T03:37:05.398Z,61.90
2022-09-21T03:39:32.188Z,61.90
2022-09-21T03:41:59.283Z,62.00
2022-09-21T03:44:26.854Z,62.00
2022-09-21T03:46:54.257Z,62.10
2022-09-21T03:49:21.270Z,62.10
2022-09-21T03:51:48.080Z,62.20
2022-09-21T03:54:14.876Z,62.20
2022-09-21T03:56:41.790Z,62.20
2022-09-21T03:59:13.188Z,62.20
2022-09-21T04:01:41.065Z,62.30
2022-09-21T04:04:08.060Z,62.40
2022-09-21T04:06:35.161Z,62.30
2022-09-21T04:09:02.602Z,62.40
2022-09-21T04:11:30.084Z,62.40
2022-09-21T04:13:57.317Z,62.40
2022-09-21T04:16:25.472Z,62.50
2022-09-21T04:18:52.417Z,62.50
2022-09-21T04:21:21.033Z,62.50
2022-09-21T04:23:49.638Z,62.50
2022-09-21T04:26:26.939Z,62.60
2022-09-21T04:28:55.554Z,62.90
2022-09-21T04:31:24.189Z,62.60
2022-09-21T04:33:53.816Z,62.40
2022-09-21T04:36:23.330Z,62.60
2022-09-21T04:38:50.790Z,62.60
2022-09-21T04:41:18.594Z,62.50
2022-09-21T04:43:46.842Z,62.50
2022-09-21T04:46:17.221Z,62.70
2022-09-21T04:48:44.976Z,62.10
2022-09-21T04:51:12.367Z,62.20
2022-09-21T04:53:41.758Z,62.50
2022-09-21T04:56:10.744Z,62.10
2022-09-21T04:58:37.599Z,62.30
2022-09-21T05:01:06.437Z,62.40
2022-09-21T05:03:34.234Z,62.40
2022-09-21T05:06:01.161Z,62.50
2022-09-21T05:08:47.001Z,62.80
2022-09-21T05:11:21.331Z,62.40
2022-09-21T05:13:48.298Z,62.50
2022-09-21T05:16:17.434Z,62.50
2022-09-21T05:18:45.446Z,62.60
2022-09-21T05:21:14.139Z,62.70
2022-09-21T05:23:41.007Z,62.90
2022-09-21T05:26:08.004Z,62.90
2022-09-21T05:28:39.218Z,62.90
2022-09-21T05:31:27.810Z,63.00
2022-09-21T05:34:06.246Z,63.80
2022-09-21T05:36:32.951Z,63.10
2022-09-21T05:39:00.370Z,63.20
2022-09-21T05:41:27.553Z,62.70
2022-09-21T05:43:55.080Z,62.90
2022-09-21T05:46:52.712Z,62.90
2022-09-21T05:49:29.604Z,63.10
2022-09-21T05:52:35.307Z,63.30
2022-09-21T05:55:22.998Z,64.20
2022-09-21T05:58:14.815Z,64.30
2022-09-21T06:01:15.917Z,64.40
2022-09-21T06:03:43.499Z,64.60
2022-09-21T06:06:10.582Z,63.70
2022-09-21T06:08:37.442Z,63.90
2022-09-21T06:11:04.383Z,63.80
2022-09-21T06:13:31.306Z,63.90
2022-09-21T06:16:02.063Z,64.00
2022-09-21T06:18:29.033Z,64.20
2022-09-21T06:20:56.118Z,64.20
2022-09-21T06:23:22.923Z,64.30
2022-09-21T06:25:58.259Z,64.30
2022-09-21T06:28:25.943Z,64.60
2022-09-21T06:30:54.961Z,64.50
2022-09-21T06:33:23.568Z,64.60
2022-09-21T06:35:59.328Z,64.70
2022-09-21T06:38:29.035Z,65.10
2022-09-21T06:41:00.750Z,64.80
2022-09-21T06:43:27.521Z,64.90
2022-09-21T06:45:59.982Z,65.10
2022-09-21T06:48:29.197Z,65.20
2022-09-21T06:51:00.413Z,65.20
2022-09-21T06:53:29.961Z,65.60
2022-09-21T06:56:06.629Z,65.50
2022-09-21T06:58:35.143Z,65.90
2022-09-21T07:01:10.991Z,65.30
2022-09-21T07:03:39.945Z,66.20
2022-09-21T07:06:08.441Z,65.30
2022-09-21T07:11:27.447Z,65.60
2022-09-21T07:13:54.252Z,65.40
2022-09-21T07:16:21.511Z,65.70
2022-09-21T07:18:48.962Z,65.00
2022-09-21T07:21:16.732Z,65.10
2022-09-21T07:23:43.606Z,65.10
2022-09-21T07:26:13.471Z,65.10
2022-09-21T07:28:41.581Z,65.20
2022-09-21T07:31:16.531Z,65.30
2022-09-21T07:33:47.082Z,65.50
2022-09-21T07:36:14.183Z,65.90
2022-09-21T07:38:43.717Z,65.30
2022-09-21T07:41:13.387Z,65.30
2022-09-21T07:43:41.595Z,65.30
2022-09-21T07:46:14.486Z,65.50
2022-09-21T07:48:42.380Z,65.60
2022-09-21T07:51:13.849Z,65.40
2022-09-21T07:53:44.365Z,65.20
2022-09-21T07:56:17.539Z,65.00
2022-09-21T07:59:03.241Z,64.90
2022-09-21T08:01:31.209Z,64.60
2022-09-21T08:03:59.797Z,64.50
2022-09-21T08:06:33.452Z,64.70
2022-09-21T08:09:01.870Z,64.80
2022-09-21T08:11:30.850Z,65.20
2022-09-21T08:14:02.916Z,64.60
2022-09-21T08:16:31.385Z,64.80
2022-09-21T08:18:58.239Z,64.70
2022-09-21T08:21:25.102Z,64.70
2022-09-21T08:23:52.314Z,64.70
2022-09-21T08:26:20.724Z,64.50
2022-09-21T08:28:51.415Z,64.40
2022-09-21T08:31:21.284Z,64.00
2022-09-21T08:33:49.844Z,63.90
2022-09-21T08:36:18.243Z,63.90
2022-09-21T08:38:45.390Z,63.80
2022-09-21T08:41:38.530Z,63.90
2022-09-21T08:44:21.284Z,64.00
2022-09-21T08:47:14.890Z,63.80
2022-09-21T08:49:55.201Z,63.40
2022-09-21T08:52:24.939Z,63.20
2022-09-21T08:54:51.672Z,63.30
2022-09-21T08:57:20.349Z,63.10
2022-09-21T08:59:49.908Z,63.00
2022-09-21T09:02:46.008Z,62.90
2022-09-21T09:05:37.206Z,62.90
2022-09-21T09:08:40.339Z,62.70
2022-09-21T09:11:44.198Z,62.50
2022-09-21T09:14:44.151Z,62.20
2022-09-21T09:17:50.711Z,62.00
2022-09-21T09:20:34.498Z,61.40
2022-09-21T09:23:31.874Z,61.20
2022-09-21T09:26:11.140Z,60.60
2022-09-21T09:29:24.907Z,60.90
2022-09-21T09:31:54.779Z,60.60
2022-09-21T09:34:38.998Z,61.20
2022-09-21T09:37:17.741Z,60.90
2022-09-21T09:39:57.791Z,60.50
2022-09-21T09:42:29.773Z,60.20
2022-09-21T09:45:23.616Z,60.60
2022-09-21T09:48:07.009Z,60.00
2022-09-21T09:50:41.657Z,59.80
2022-09-21T09:53:26.792Z,59.60
2022-09-21T09:55:57.610Z,59.50
2022-09-21T09:58:36.688Z,59.90
2022-09-21T10:01:04.288Z,59.80
2022-09-21T10:03:31.167Z,59.40
2022-09-21T10:05:58.093Z,59.30
2022-09-21T10:08:36.834Z,59.20
2022-09-21T10:11:05.574Z,58.60
2022-09-21T10:13:34.814Z,59.00
2022-09-21T10:16:23.646Z,58.60
2022-09-21T10:18:56.248Z,58.00
2022-09-21T10:21:27.419Z,59.40
2022-09-21T10:24:12.788Z,58.00
2022-09-21T10:26:52.931Z,57.50
2022-09-21T10:29:49.305Z,57.40
2022-09-21T10:32:16.339Z,56.90
2022-09-21T10:35:05.189Z,57.80
2022-09-21T10:37:43.358Z,56.10
2022-09-21T10:40:19.528Z,57.60
2022-09-21T10:42:54.806Z,56.90
2022-09-21T10:45:26.557Z,56.30
2022-09-21T10:48:17.903Z,56.40
2022-09-21T10:50:50.977Z,56.40
2022-09-21T10:53:30.969Z,56.20
2022-09-21T10:56:22.379Z,55.50
2022-09-21T10:59:13.749Z,55.60
2022-09-21T11:01:48.966Z,54.70
2022-09-21T11:05:26.359Z,54.50
2022-09-21T11:08:14.466Z,53.90
2022-09-21T11:11:11.958Z,54.80
2022-09-21T11:14:15.114Z,54.20
2022-09-21T11:17:35.220Z,53.50
2022-09-21T11:20:19.329Z,53.70
2022-09-21T11:23:19.870Z,54.40
2022-09-21T11:26:15.074Z,53.20
2022-09-21T11:32:20.201Z,53.20
2022-09-21T11:35:26.874Z,53.20
2022-09-21T11:38:04.249Z,53.00
2022-09-21T11:40:42.021Z,52.60
2022-09-21T11:43:54.457Z,53.30
2022-09-21T11:46:45.197Z,51.70
2022-09-21T11:50:07.736Z,52.10
2022-09-21T11:53:29.922Z,52.40
2022-09-21T11:56:53.141Z,51.50
2022-09-21T11:59:49.401Z,51.70
2022-09-21T12:02:44.276Z,51.70
2022-09-21T12:05:44.293Z,51.00
2022-09-21T12:08:45.586Z,50.90
2022-09-21T12:11:27.546Z,50.10
2022-09-21T12:14:17.402Z,51.40
2022-09-21T12:17:14.793Z,50.40
2022-09-21T12:20:02.309Z,50.20
2022-09-21T12:22:41.830Z,50.60
2022-09-21T12:25:15.134Z,50.30
2022-09-21T12:28:31.292Z,49.90
2022-09-21T12:31:17.150Z,49.10
2022-09-21T12:33:53.581Z,47.30
2022-09-21T12:36:39.563Z,48.40
2022-09-21T12:40:15.611Z,46.10
2022-09-21T12:42:50.827Z,46.80
2022-09-21T12:45:32.921Z,46.80
2022-09-21T12:48:24.634Z,44.50
2022-09-21T12:51:21.411Z,45.50
2022-09-21T12:53:53.446Z,44.70
2022-09-21T12:56:43.450Z,44.40
2022-09-21T12:59:36.593Z,45.30
2022-09-21T13:02:37.299Z,44.10
2022-09-21T13:05:22.539Z,44.10
2022-09-21T13:08:05.110Z,45.10
2022-09-21T13:10:45.315Z,42.40
2022-09-21T13:13:31.412Z,44.20
2022-09-21T13:15:59.883Z,42.90
2022-09-21T13:18:36.642Z,43.80
2022-09-21T13:21:21.969Z,42.60
2022-09-21T13:24:00.754Z,41.80
2022-09-21T13:26:41.504Z,42.10
2022-09-21T13:29:17.184Z,41.60
2022-09-21T13:32:04.389Z,42.70
2022-09-21T13:34:39.082Z,41.30
2022-09-21T13:37:18.052Z,41.00
2022-09-21T13:39:55.699Z,40.50
2022-09-21T13:42:34.810Z,41.70
2022-09-21T13:45:05.082Z,39.80
2022-09-21T13:47:35.858Z,42.10
2022-09-21T13:50:26.889Z,41.50
2022-09-21T13:53:02.015Z,40.40
2022-09-21T13:55:39.927Z,40.40
2022-09-21T13:58:26.566Z,41.50
2022-09-21T14:01:09.922Z,40.60
2022-09-21T14:04:01.887Z,39.50
2022-09-21T14:06:43.707Z,39.10
2022-09-21T14:09:37.656Z,39.40
2022-09-21T14:12:12.538Z,39.70
2022-09-21T14:14:41.438Z,39.80
2022-09-21T14:17:37.976Z,40.10
2022-09-21T14:20:35.806Z,38.70
2022-09-21T14:23:14.739Z,39.10
2022-09-21T14:26:33.932Z,38.40
2022-09-21T14:29:24.520Z,38.90
2022-09-21T14:31:59.513Z,38.00
2022-09-21T14:34:36.711Z,38.10
2022-09-21T14:37:36.416Z,38.00
2022-09-21T14:40:31.298Z,36.80
2022-09-21T14:43:03.520Z,37.80
2022-09-21T14:46:11.922Z,37.80
2022-09-21T14:49:14.842Z,36.30
2022-09-21T14:52:04.257Z,37.80
2022-09-21T14:55:16.703Z,37.80
2022-09-21T14:57:59.529Z,38.50
2022-09-21T15:00:46.249Z,37.70
2022-09-21T15:03:31.393Z,37.10
2022-09-21T15:06:38.032Z,37.80
2022-09-21T15:09:54.019Z,37.70
2022-09-21T15:12:38.191Z,37.10
2022-09-21T15:15:41.278Z,36.90
2022-09-21T15:18:21.745Z,36.60
2022-09-21T15:21:01.664Z,36.00
2022-09-21T15:23:33.979Z,36.80
2022-09-21T15:26:09.930Z,37.70
2022-09-21T15:29:08.260Z,36.70
2022-09-21T15:31:38.659Z,37.10
2022-09-21T15:34:08.402Z,37.50
2022-09-21T15:36:44.856Z,37.30
2022-09-21T15:39:27.623Z,36.70
2022-09-21T15:42:22.779Z,37.60
2022-09-21T15:45:06.467Z,37.60
2022-09-21T15:47:34.081Z,38.20
2022-09-21T15:50:01.125Z,38.00
2022-09-21T15:52:43.116Z,37.80
2022-09-21T15:55:21.840Z,36.60
2022-09-21T15:57:58.538Z,37.40
2022-09-21T16:00:31.597Z,36.00
2022-09-21T16:03:16.335Z,37.70
2022-09-21T16:05:56.179Z,37.80
2022-09-21T16:08:37.541Z,37.10
2022-09-21T16:11:27.258Z,36.60
2022-09-21T16:14:33.842Z,36.80
2022-09-21T16:17:09.391Z,36.70
2022-09-21T16:19:51.107Z,36.10
2022-09-21T16:22:29.682Z,36.10
2022-09-21T16:25:01.586Z,36.10
2022-09-21T16:27:32.739Z,36.10
2022-09-21T16:30:01.052Z,36.40
2022-09-21T16:32:33.075Z,36.50
2022-09-21T16:35:27.882Z,36.60
2022-09-21T16:37:58.914Z,35.80
2022-09-21T16:40:27.507Z,36.80
2022-09-21T16:42:55.892Z,36.70
2022-09-21T16:45:31.744Z,36.60
2022-09-21T16:47:59.747Z,36.60
2022-09-21T16:50:27.102Z,36.50
2022-09-21T16:52:53.934Z,36.40
2022-09-21T16:55:24.423Z,36.50
2022-09-21T16:57:55.187Z,36.50
2022-09-21T17:00:22.272Z,36.80
2022-09-21T17:02:49.637Z,36.60
2022-09-21T17:05:19.272Z,36.60
2022-09-21T17:07:54.826Z,36.70
2022-09-21T17:10:29.250Z,36.60
2022-09-21T17:12:56.785Z,36.80
2022-09-21T17:15:24.779Z,36.90
2022-09-21T17:17:51.732Z,36.90
2022-09-21T17:20:33.940Z,37.20
2022-09-21T17:23:03.005Z,36.90
2022-09-21T17:25:32.782Z,37.50
2022-09-21T17:28:01.638Z,37.40
2022-09-21T17:30:29.190Z,37.40
2022-09-21T17:32:58.244Z,37.50
2022-09-21T17:35:39.401Z,37.50
2022-09-21T17:38:14.338Z,37.40
2022-09-21T17:40:43.022Z,37.50
2022-09-21T17:43:50.042Z,37.50
2022-09-21T17:46:23.278Z,37.10
2022-09-21T17:48:50.716Z,37.60
2022-09-21T17:51:37.998Z,37.90
2022-09-21T17:54:05.486Z,38.00
2022-09-21T17:56:57.769Z,38.10
2022-09-21T17:59:32.225Z,37.70
2022-09-21T18:02:01.089Z,37.90
2022-09-21T18:04:32.795Z,38.20
2022-09-21T18:07:00.154Z,38.80
2022-09-21T18:09:27.372Z,38.40
2022-09-21T18:12:11.103Z,38.40
2022-09-21T18:15:27.242Z,38.30
2022-09-21T18:18:03.214Z,38.30
2022-09-21T18:21:01.992Z,38.50
2022-09-21T18:24:11.899Z,38.50
2022-09-21T18:26:40.284Z,38.60
2022-09-21T18:29:38.858Z,38.80
2022-09-21T18:32:31.336Z,38.80
2022-09-21T18:35:14.924Z,38.90
2022-09-21T18:38:13.018Z,39.00
2022-09-21T18:40:51.886Z,39.00
2022-09-21T18:43:49.508Z,39.50
2022-09-21T18:46:39.154Z,39.30
2022-09-21T18:49:34.754Z,39.50
2022-09-21T18:52:32.736Z,39.70
2022-09-21T18:54:59.730Z,40.10
2022-09-21T18:57:32.192Z,40.00
2022-09-21T19:00:00.217Z,40.10
2022-09-21T19:02:28.478Z,40.50
2022-09-21T19:04:57.965Z,40.40
2022-09-21T19:07:40.142Z,40.30
2022-09-21T19:10:29.200Z,40.80
2022-09-21T19:13:26.875Z,40.60
2022-09-21T19:16:46.949Z,40.10
2022-09-21T19:19:55.158Z,40.30
2022-09-21T19:22:45.945Z,40.80
2022-09-21T19:25:28.146Z,41.00
2022-09-21T19:28:00.327Z,41.00
2022-09-21T19:30:27.831Z,41.00
2022-09-21T19:32:58.258Z,41.20
2022-09-21T19:35:30.809Z,41.40
2022-09-21T19:38:03.018Z,41.70
2022-09-21T19:40:34.214Z,41.80
2022-09-21T19:43:20.558Z,42.10
2022-09-21T19:46:04.987Z,42.10
2022-09-21T19:48:45.245Z,42.70
2022-09-21T19:51:35.586Z,42.80
2022-09-21T19:54:27.650Z,42.80
2022-09-21T19:57:13.527Z,42.60
2022-09-21T19:59:43.278Z,42.80
2022-09-21T20:02:23.560Z,42.90
2022-09-21T20:05:08.041Z,43.30
2022-09-21T20:07:47.111Z,43.50
2022-09-21T20:10:22.889Z,43.10
2022-09-21T20:12:52.437Z,43.30
2022-09-21T20:15:30.056Z,43.60
2022-09-21T20:18:20.473Z,43.70
2022-09-21T20:20:47.798Z,43.70
2022-09-21T20:23:14.901Z,43.50
2022-09-21T20:26:00.674Z,43.50
2022-09-21T20:28:27.856Z,43.80
2022-09-21T20:30:54.989Z,43.60
2022-09-21T20:33:24.082Z,43.60
2022-09-21T20:35:55.794Z,44.30
2022-09-21T20:38:23.393Z,44.00
2022-09-21T20:40:51.383Z,43.90
2022-09-21T20:43:19.772Z,43.90
2022-09-21T20:45:50.204Z,43.90
2022-09-21T20:48:17.262Z,44.40
2022-09-21T20:50:47.976Z,43.90
2022-09-21T20:53:15.021Z,44.00
2022-09-21T20:55:43.730Z,43.90
2022-09-21T20:58:12.962Z,43.90
2022-09-21T21:00:39.941Z,44.00
2022-09-21T21:03:06.904Z,44.00
2022-09-21T21:05:33.685Z,44.10
2022-09-21T21:08:00.485Z,44.00
2022-09-21T21:10:27.289Z,44.00
2022-09-21T21:12:54.126Z,44.10
2022-09-21T21:15:20.927Z,44.10
2022-09-21T21:17:48.898Z,44.10
2022-09-21T21:20:16.730Z,44.00
2022-09-21T21:22:48.052Z,44.00
2022-09-21T21:25:15.591Z,44.10
2022-09-21T21:27:42.557Z,44.20
2022-09-21T21:30:11.274Z,44.10
2022-09-21T21:32:38.083Z,44.10
2022-09-21T21:35:06.084Z,44.10
2022-09-21T21:37:32.868Z,44.10
2022-09-21T21:39:59.678Z,44.20
2022-09-21T21:42:28.774Z,44.20
2022-09-21T21:44:56.306Z,44.20
2022-09-21T21:47:40.260Z,44.20
2022-09-21T21:50:09.233Z,44.30
2022-09-21T21:52:36.529Z,44.40
2022-09-21T21:55:04.561Z,44.30
2022-09-21T21:57:31.380Z,44.30
2022-09-21T21:59:58.198Z,44.40
2022-09-21T22:02:24.958Z,44.40
2022-09-21T22:04:52.607Z,44.40
2022-09-21T22:07:19.401Z,44.50
2022-09-21T22:09:46.199Z,44.50
2022-09-21T22:12:12.983Z,44.50
2022-09-21T22:14:39.969Z,45.20
2022-09-21T22:17:06.721Z,44.60
2022-09-21T22:19:33.505Z,44.60
2022-09-21T22:22:00.448Z,44.80
2022-09-21T22:24:27.209Z,45.00
2022-09-21T22:26:54.034Z,44.80
2022-09-21T22:29:20.826Z,44.90
2022-09-21T22:31:49.930Z,45.20
2022-09-21T22:34:17.146Z,45.40
2022-09-21T22:36:44.225Z,45.40
2022-09-21T22:39:12.121Z,45.60
2022-09-21T22:41:42.234Z,45.60
2022-09-21T22:44:10.598Z,45.80
2022-09-21T22:46:38.625Z,45.80
2022-09-21T22:49:06.461Z,46.00
2022-09-21T22:51:34.361Z,46.20
2022-09-21T22:54:01.708Z,46.30
2022-09-21T22:56:31.664Z,46.30
2022-09-21T22:59:01.795Z,46.50
2022-09-21T23:01:36.225Z,46.60
2022-09-21T23:04:08.063Z,46.70
2022-09-21T23:06:38.011Z,46.80
2022-09-21T23:09:08.226Z,46.90
2022-09-21T23:11:46.403Z,47.10
2022-09-21T23:14:17.270Z,47.80
2022-09-21T23:16:44.661Z,47.10
2022-09-21T23:19:15.669Z,47.20
2022-09-21T23:21:46.615Z,47.20
2022-09-21T23:24:13.748Z,47.40
2022-09-21T23:26:41.568Z,47.30
2022-09-21T23:29:13.389Z,47.30
2022-09-21T23:31:44.706Z,47.20
2022-09-21T23:34:12.828Z,46.90
2022-09-21T23:36:41.606Z,47.00
2022-09-21T23:39:12.518Z,47.20
2022-09-21T23:41:39.962Z,47.40
2022-09-21T23:44:06.992Z,47.90
2022-09-21T23:46:37.818Z,47.50
2022-09-21T23:49:04.946Z,47.50
2022-09-21T23:51:31.848Z,48.00
2022-09-21T23:54:00.260Z,47.40
2022-09-21T23:56:28.844Z,47.50
2022-09-21T23:58:56.093Z,47.70
